sensor_id;sensor_type;location;lat;lon;timestamp;P1;durP1;ratioP1;P2;durP2;ratioP2
9248;SDS011;4660;41.768;26.198;2022-08-21T00:01:25;5.88;;;5.28;;
9248;SDS011;4660;41.768;26.198;2022-08-21T00:03:54;6.15;;;5.35;;
9248;SDS011;4660;41.768;26.198;2022-08-21T00:06:20;7.60;;;6.07;;
9248;SDS011;4660;41.768;26.198;2022-08-21T00:08:47;6.35;;;5.85;;
9248;SDS011;4660;41.768;26.198;2022-08-21T00:11:13;6.10;;;5.50;;
9248;SDS011;4660;41.768;26.198;2022-08-21T00:13:39;6.90;;;5.70;;
9248;SDS011;4660;41.768;26.198;2022-08-21T00:16:05;6.50;;;5.70;;
9248;SDS011;4660;41.768;26.198;2022-08-21T00:18:31;6.00;;;5.50;;
9248;SDS011;4660;41.768;26.198;2022-08-21T00:20:57;6.53;;;5.90;;
9248;SDS011;4660;41.768;26.198;2022-08-21T00:23:23;8.43;;;5.72;;
9248;SDS011;4660;41.768;26.198;2022-08-21T00:25:48;7.43;;;6.60;;
9248;SDS011;4660;41.768;26.198;2022-08-21T00:28:14;6.93;;;5.90;;
9248;SDS011;4660;41.768;26.198;2022-08-21T00:30:40;8.55;;;5.78;;
9248;SDS011;4660;41.768;26.198;2022-08-21T00:33:07;8.05;;;6.05;;
9248;SDS011;4660;41.768;26.198;2022-08-21T00:35:35;6.65;;;5.95;;
9248;SDS011;4660;41.768;26.198;2022-08-21T00:38:04;5.70;;;5.20;;
9248;SDS011;4660;41.768;26.198;2022-08-21T00:40:40;9.05;;;6.20;;
9248;SDS011;4660;41.768;26.198;2022-08-21T00:43:10;5.63;;;4.97;;
9248;SDS011;4660;41.768;26.198;2022-08-21T00:45:37;6.28;;;5.68;;
9248;SDS011;4660;41.768;26.198;2022-08-21T00:48:03;7.93;;;5.93;;
9248;SDS011;4660;41.768;26.198;2022-08-21T00:50:31;9.13;;;5.78;;
9248;SDS011;4660;41.768;26.198;2022-08-21T00:52:58;6.50;;;5.82;;
9248;SDS011;4660;41.768;26.198;2022-08-21T00:55:28;6.75;;;5.40;;
9248;SDS011;4660;41.768;26.198;2022-08-21T00:57:55;8.07;;;5.97;;
9248;SDS011;4660;41.768;26.198;2022-08-21T01:00:26;7.30;;;5.25;;
9248;SDS011;4660;41.768;26.198;2022-08-21T01:02:57;6.05;;;5.53;;
9248;SDS011;4660;41.768;26.198;2022-08-21T01:05:24;6.90;;;6.18;;
9248;SDS011;4660;41.768;26.198;2022-08-21T01:07:50;8.52;;;5.80;;
9248;SDS011;4660;41.768;26.198;2022-08-21T01:10:17;8.13;;;5.78;;
9248;SDS011;4660;41.768;26.198;2022-08-21T01:12:43;7.07;;;6.32;;
9248;SDS011;4660;41.768;26.198;2022-08-21T01:15:09;7.82;;;7.05;;
9248;SDS011;4660;41.768;26.198;2022-08-21T01:17:35;6.85;;;6.30;;
9248;SDS011;4660;41.768;26.198;2022-08-21T01:20:04;8.32;;;6.60;;
9248;SDS011;4660;41.768;26.198;2022-08-21T01:22:32;7.35;;;6.65;;
9248;SDS011;4660;41.768;26.198;2022-08-21T01:24:58;6.55;;;6.05;;
9248;SDS011;4660;41.768;26.198;2022-08-21T01:27:23;9.75;;;6.82;;
9248;SDS011;4660;41.768;26.198;2022-08-21T01:29:55;6.63;;;6.03;;
9248;SDS011;4660;41.768;26.198;2022-08-21T01:32:26;6.50;;;5.90;;
9248;SDS011;4660;41.768;26.198;2022-08-21T01:34:52;6.65;;;5.90;;
9248;SDS011;4660;41.768;26.198;2022-08-21T01:37:18;6.45;;;5.85;;
9248;SDS011;4660;41.768;26.198;2022-08-21T01:39:45;7.60;;;6.93;;
9248;SDS011;4660;41.768;26.198;2022-08-21T01:42:11;7.60;;;6.93;;
9248;SDS011;4660;41.768;26.198;2022-08-21T01:44:37;6.60;;;5.63;;
9248;SDS011;4660;41.768;26.198;2022-08-21T01:47:05;6.95;;;6.00;;
9248;SDS011;4660;41.768;26.198;2022-08-21T01:49:33;10.57;;;6.18;;
9248;SDS011;4660;41.768;26.198;2022-08-21T01:52:01;6.60;;;6.00;;
9248;SDS011;4660;41.768;26.198;2022-08-21T01:54:29;7.28;;;6.30;;
9248;SDS011;4660;41.768;26.198;2022-08-21T01:56:55;9.60;;;6.63;;
9248;SDS011;4660;41.768;26.198;2022-08-21T01:59:23;7.25;;;5.95;;
9248;SDS011;4660;41.768;26.198;2022-08-21T02:01:49;6.68;;;5.97;;
9248;SDS011;4660;41.768;26.198;2022-08-21T02:04:16;7.35;;;5.80;;
9248;SDS011;4660;41.768;26.198;2022-08-21T02:06:41;7.43;;;6.22;;
9248;SDS011;4660;41.768;26.198;2022-08-21T02:09:08;7.10;;;6.35;;
9248;SDS011;4660;41.768;26.198;2022-08-21T02:11:35;11.20;;;6.07;;
9248;SDS011;4660;41.768;26.198;2022-08-21T02:14:05;8.48;;;6.40;;
9248;SDS011;4660;41.768;26.198;2022-08-21T02:16:34;6.82;;;6.13;;
9248;SDS011;4660;41.768;26.198;2022-08-21T02:19:00;7.85;;;5.85;;
9248;SDS011;4660;41.768;26.198;2022-08-21T02:21:26;6.85;;;6.25;;
9248;SDS011;4660;41.768;26.198;2022-08-21T02:23:51;7.30;;;6.30;;
9248;SDS011;4660;41.768;26.198;2022-08-21T02:26:17;7.35;;;5.93;;
9248;SDS011;4660;41.768;26.198;2022-08-21T02:28:43;6.38;;;5.78;;
9248;SDS011;4660;41.768;26.198;2022-08-21T02:31:09;10.70;;;5.40;;
9248;SDS011;4660;41.768;26.198;2022-08-21T02:33:35;8.73;;;5.70;;
9248;SDS011;4660;41.768;26.198;2022-08-21T02:36:01;9.05;;;5.55;;
9248;SDS011;4660;41.768;26.198;2022-08-21T02:38:29;6.88;;;5.13;;
9248;SDS011;4660;41.768;26.198;2022-08-21T02:40:58;6.22;;;5.63;;
9248;SDS011;4660;41.768;26.198;2022-08-21T02:43:25;6.68;;;5.43;;
9248;SDS011;4660;41.768;26.198;2022-08-21T02:45:52;8.20;;;5.35;;
9248;SDS011;4660;41.768;26.198;2022-08-21T02:48:21;9.30;;;5.45;;
9248;SDS011;4660;41.768;26.198;2022-08-21T02:50:54;7.78;;;5.25;;
9248;SDS011;4660;41.768;26.198;2022-08-21T02:53:25;7.40;;;5.55;;
9248;SDS011;4660;41.768;26.198;2022-08-21T02:55:52;6.10;;;5.07;;
9248;SDS011;4660;41.768;26.198;2022-08-21T02:58:24;8.85;;;5.50;;
9248;SDS011;4660;41.768;26.198;2022-08-21T03:00:52;11.02;;;5.50;;
9248;SDS011;4660;41.768;26.198;2022-08-21T03:03:18;8.32;;;5.38;;
9248;SDS011;4660;41.768;26.198;2022-08-21T03:05:47;7.40;;;5.20;;
9248;SDS011;4660;41.768;26.198;2022-08-21T03:08:14;8.98;;;5.28;;
9248;SDS011;4660;41.768;26.198;2022-08-21T03:10:41;8.25;;;5.05;;
9248;SDS011;4660;41.768;26.198;2022-08-21T03:13:09;9.05;;;5.13;;
9248;SDS011;4660;41.768;26.198;2022-08-21T03:15:36;12.35;;;5.78;;
9248;SDS011;4660;41.768;26.198;2022-08-21T03:18:02;9.93;;;4.70;;
9248;SDS011;4660;41.768;26.198;2022-08-21T03:20:30;10.52;;;5.63;;
9248;SDS011;4660;41.768;26.198;2022-08-21T03:22:58;9.40;;;4.78;;
9248;SDS011;4660;41.768;26.198;2022-08-21T03:25:25;8.93;;;4.85;;
9248;SDS011;4660;41.768;26.198;2022-08-21T03:27:52;8.75;;;5.55;;
9248;SDS011;4660;41.768;26.198;2022-08-21T03:30:19;11.35;;;5.43;;
9248;SDS011;4660;41.768;26.198;2022-08-21T03:32:49;8.82;;;5.07;;
9248;SDS011;4660;41.768;26.198;2022-08-21T03:35:16;10.77;;;5.28;;
9248;SDS011;4660;41.768;26.198;2022-08-21T03:37:42;7.45;;;5.32;;
9248;SDS011;4660;41.768;26.198;2022-08-21T03:40:09;9.05;;;5.60;;
9248;SDS011;4660;41.768;26.198;2022-08-21T03:42:36;10.98;;;5.38;;
9248;SDS011;4660;41.768;26.198;2022-08-21T03:45:03;15.35;;;5.40;;
9248;SDS011;4660;41.768;26.198;2022-08-21T03:47:29;8.00;;;5.35;;
9248;SDS011;4660;41.768;26.198;2022-08-21T03:49:55;11.45;;;5.65;;
9248;SDS011;4660;41.768;26.198;2022-08-21T03:52:20;7.38;;;5.13;;
9248;SDS011;4660;41.768;26.198;2022-08-21T03:54:46;9.25;;;5.18;;
9248;SDS011;4660;41.768;26.198;2022-08-21T03:57:12;9.73;;;4.80;;
9248;SDS011;4660;41.768;26.198;2022-08-21T03:59:37;10.95;;;5.35;;
9248;SDS011;4660;41.768;26.198;2022-08-21T04:02:05;9.07;;;5.50;;
9248;SDS011;4660;41.768;26.198;2022-08-21T04:04:32;8.30;;;5.35;;
9248;SDS011;4660;41.768;26.198;2022-08-21T04:06:59;10.27;;;5.28;;
9248;SDS011;4660;41.768;26.198;2022-08-21T04:09:25;9.15;;;5.25;;
9248;SDS011;4660;41.768;26.198;2022-08-21T04:11:51;7.78;;;5.57;;
9248;SDS011;4660;41.768;26.198;2022-08-21T04:14:17;10.85;;;5.93;;
9248;SDS011;4660;41.768;26.198;2022-08-21T04:16:43;7.30;;;4.90;;
9248;SDS011;4660;41.768;26.198;2022-08-21T04:19:11;7.32;;;5.40;;
9248;SDS011;4660;41.768;26.198;2022-08-21T04:21:38;8.93;;;5.57;;
9248;SDS011;4660;41.768;26.198;2022-08-21T04:24:05;10.57;;;5.82;;
9248;SDS011;4660;41.768;26.198;2022-08-21T04:26:33;7.63;;;5.15;;
9248;SDS011;4660;41.768;26.198;2022-08-21T04:29:03;6.88;;;5.50;;
9248;SDS011;4660;41.768;26.198;2022-08-21T04:31:31;7.03;;;5.25;;
9248;SDS011;4660;41.768;26.198;2022-08-21T04:33:58;9.18;;;5.72;;
9248;SDS011;4660;41.768;26.198;2022-08-21T04:36:24;10.93;;;5.28;;
9248;SDS011;4660;41.768;26.198;2022-08-21T04:38:50;6.90;;;5.32;;
9248;SDS011;4660;41.768;26.198;2022-08-21T04:41:15;10.07;;;5.72;;
9248;SDS011;4660;41.768;26.198;2022-08-21T04:43:41;10.77;;;5.60;;
9248;SDS011;4660;41.768;26.198;2022-08-21T04:46:07;10.27;;;5.72;;
9248;SDS011;4660;41.768;26.198;2022-08-21T04:48:33;7.57;;;5.55;;
9248;SDS011;4660;41.768;26.198;2022-08-21T04:53:37;7.95;;;5.05;;
9248;SDS011;4660;41.768;26.198;2022-08-21T04:56:06;8.00;;;4.78;;
9248;SDS011;4660;41.768;26.198;2022-08-21T04:58:35;6.20;;;5.40;;
9248;SDS011;4660;41.768;26.198;2022-08-21T05:01:04;9.15;;;5.38;;
9248;SDS011;4660;41.768;26.198;2022-08-21T05:03:34;7.20;;;4.80;;
9248;SDS011;4660;41.768;26.198;2022-08-21T05:06:04;11.90;;;6.05;;
9248;SDS011;4660;41.768;26.198;2022-08-21T05:08:31;6.65;;;5.72;;
9248;SDS011;4660;41.768;26.198;2022-08-21T05:10:59;6.97;;;5.05;;
9248;SDS011;4660;41.768;26.198;2022-08-21T05:13:24;9.57;;;5.72;;
9248;SDS011;4660;41.768;26.198;2022-08-21T05:15:50;6.43;;;5.75;;
9248;SDS011;4660;41.768;26.198;2022-08-21T05:18:15;7.97;;;5.10;;
9248;SDS011;4660;41.768;26.198;2022-08-21T05:20:41;9.20;;;5.68;;
9248;SDS011;4660;41.768;26.198;2022-08-21T05:23:08;10.10;;;5.63;;
9248;SDS011;4660;41.768;26.198;2022-08-21T05:25:36;12.10;;;6.22;;
9248;SDS011;4660;41.768;26.198;2022-08-21T05:28:02;9.52;;;5.97;;
9248;SDS011;4660;41.768;26.198;2022-08-21T05:30:29;9.38;;;5.72;;
9248;SDS011;4660;41.768;26.198;2022-08-21T05:32:58;10.05;;;5.85;;
9248;SDS011;4660;41.768;26.198;2022-08-21T05:35:24;11.95;;;6.15;;
9248;SDS011;4660;41.768;26.198;2022-08-21T05:37:51;10.82;;;6.00;;
9248;SDS011;4660;41.768;26.198;2022-08-21T05:40:16;10.50;;;6.45;;
9248;SDS011;4660;41.768;26.198;2022-08-21T05:42:43;9.82;;;6.82;;
9248;SDS011;4660;41.768;26.198;2022-08-21T05:45:09;10.20;;;6.13;;
9248;SDS011;4660;41.768;26.198;2022-08-21T05:47:35;10.80;;;6.20;;
9248;SDS011;4660;41.768;26.198;2022-08-21T05:50:01;9.15;;;7.07;;
9248;SDS011;4660;41.768;26.198;2022-08-21T05:52:26;8.27;;;6.60;;
9248;SDS011;4660;41.768;26.198;2022-08-21T05:54:52;7.78;;;6.75;;
9248;SDS011;4660;41.768;26.198;2022-08-21T05:57:19;17.30;;;7.25;;
9248;SDS011;4660;41.768;26.198;2022-08-21T05:59:46;9.52;;;7.00;;
9248;SDS011;4660;41.768;26.198;2022-08-21T06:02:12;12.23;;;7.05;;
9248;SDS011;4660;41.768;26.198;2022-08-21T06:04:38;9.95;;;6.80;;
9248;SDS011;4660;41.768;26.198;2022-08-21T06:07:04;11.95;;;7.18;;
9248;SDS011;4660;41.768;26.198;2022-08-21T06:09:30;9.27;;;6.95;;
9248;SDS011;4660;41.768;26.198;2022-08-21T06:11:57;8.45;;;6.82;;
9248;SDS011;4660;41.768;26.198;2022-08-21T06:14:22;14.40;;;8.18;;
9248;SDS011;4660;41.768;26.198;2022-08-21T06:16:48;10.13;;;7.97;;
9248;SDS011;4660;41.768;26.198;2022-08-21T06:19:13;9.65;;;7.45;;
9248;SDS011;4660;41.768;26.198;2022-08-21T06:21:39;9.43;;;7.63;;
9248;SDS011;4660;41.768;26.198;2022-08-21T06:24:05;9.70;;;8.60;;
9248;SDS011;4660;41.768;26.198;2022-08-21T06:26:32;13.82;;;8.48;;
9248;SDS011;4660;41.768;26.198;2022-08-21T06:28:58;11.07;;;9.95;;
9248;SDS011;4660;41.768;26.198;2022-08-21T06:31:25;10.50;;;8.63;;
9248;SDS011;4660;41.768;26.198;2022-08-21T06:33:52;15.70;;;9.63;;
9248;SDS011;4660;41.768;26.198;2022-08-21T06:36:18;11.38;;;9.93;;
9248;SDS011;4660;41.768;26.198;2022-08-21T06:38:46;11.70;;;10.60;;
9248;SDS011;4660;41.768;26.198;2022-08-21T06:41:12;11.57;;;9.50;;
9248;SDS011;4660;41.768;26.198;2022-08-21T06:43:38;12.43;;;9.57;;
9248;SDS011;4660;41.768;26.198;2022-08-21T06:46:04;11.05;;;9.43;;
9248;SDS011;4660;41.768;26.198;2022-08-21T06:48:29;10.45;;;8.57;;
9248;SDS011;4660;41.768;26.198;2022-08-21T06:50:58;9.65;;;8.70;;
9248;SDS011;4660;41.768;26.198;2022-08-21T06:53:25;8.90;;;8.10;;
9248;SDS011;4660;41.768;26.198;2022-08-21T06:55:51;12.20;;;8.75;;
9248;SDS011;4660;41.768;26.198;2022-08-21T06:58:17;10.40;;;7.40;;
9248;SDS011;4660;41.768;26.198;2022-08-21T07:00:44;8.93;;;7.30;;
9248;SDS011;4660;41.768;26.198;2022-08-21T07:03:28;7.88;;;6.68;;
9248;SDS011;4660;41.768;26.198;2022-08-21T07:05:56;8.70;;;7.43;;
9248;SDS011;4660;41.768;26.198;2022-08-21T07:08:24;9.43;;;7.70;;
9248;SDS011;4660;41.768;26.198;2022-08-21T07:10:51;9.40;;;7.57;;
9248;SDS011;4660;41.768;26.198;2022-08-21T07:13:18;8.80;;;7.22;;
9248;SDS011;4660;41.768;26.198;2022-08-21T07:15:44;8.43;;;7.60;;
9248;SDS011;4660;41.768;26.198;2022-08-21T07:18:10;9.57;;;7.47;;
9248;SDS011;4660;41.768;26.198;2022-08-21T07:20:37;9.00;;;7.05;;
9248;SDS011;4660;41.768;26.198;2022-08-21T07:23:03;9.73;;;7.20;;
9248;SDS011;4660;41.768;26.198;2022-08-21T07:25:31;8.50;;;7.18;;
9248;SDS011;4660;41.768;26.198;2022-08-21T07:27:57;8.25;;;7.35;;
9248;SDS011;4660;41.768;26.198;2022-08-21T07:30:22;8.57;;;7.78;;
9248;SDS011;4660;41.768;26.198;2022-08-21T07:32:49;8.73;;;7.97;;
9248;SDS011;4660;41.768;26.198;2022-08-21T07:35:15;9.15;;;8.45;;
9248;SDS011;4660;41.768;26.198;2022-08-21T07:37:41;9.05;;;8.15;;
9248;SDS011;4660;41.768;26.198;2022-08-21T07:40:07;8.48;;;7.72;;
9248;SDS011;4660;41.768;26.198;2022-08-21T07:42:33;8.88;;;7.97;;
9248;SDS011;4660;41.768;26.198;2022-08-21T07:44:59;8.90;;;7.32;;
9248;SDS011;4660;41.768;26.198;2022-08-21T07:47:24;7.15;;;6.30;;
9248;SDS011;4660;41.768;26.198;2022-08-21T07:49:50;7.50;;;6.80;;
9248;SDS011;4660;41.768;26.198;2022-08-21T07:52:15;8.15;;;7.35;;
9248;SDS011;4660;41.768;26.198;2022-08-21T07:54:41;8.15;;;7.18;;
9248;SDS011;4660;41.768;26.198;2022-08-21T07:57:06;9.15;;;8.25;;
9248;SDS011;4660;41.768;26.198;2022-08-21T07:59:32;10.18;;;9.10;;
9248;SDS011;4660;41.768;26.198;2022-08-21T08:01:58;12.23;;;8.20;;
9248;SDS011;4660;41.768;26.198;2022-08-21T08:04:24;9.57;;;8.68;;
9248;SDS011;4660;41.768;26.198;2022-08-21T08:06:49;9.73;;;8.90;;
9248;SDS011;4660;41.768;26.198;2022-08-21T08:09:15;9.80;;;8.75;;
9248;SDS011;4660;41.768;26.198;2022-08-21T08:11:42;9.73;;;8.93;;
9248;SDS011;4660;41.768;26.198;2022-08-21T08:14:10;10.65;;;9.55;;
9248;SDS011;4660;41.768;26.198;2022-08-21T08:16:36;8.88;;;8.07;;
9248;SDS011;4660;41.768;26.198;2022-08-21T08:19:02;7.65;;;6.85;;
9248;SDS011;4660;41.768;26.198;2022-08-21T08:21:28;7.78;;;6.65;;
9248;SDS011;4660;41.768;26.198;2022-08-21T08:23:54;7.55;;;6.70;;
9248;SDS011;4660;41.768;26.198;2022-08-21T08:26:20;7.68;;;6.88;;
9248;SDS011;4660;41.768;26.198;2022-08-21T08:28:46;8.07;;;6.72;;
9248;SDS011;4660;41.768;26.198;2022-08-21T08:31:12;7.93;;;7.00;;
9248;SDS011;4660;41.768;26.198;2022-08-21T08:33:39;11.93;;;8.68;;
9248;SDS011;4660;41.768;26.198;2022-08-21T08:36:05;9.98;;;8.75;;
9248;SDS011;4660;41.768;26.198;2022-08-21T08:38:37;8.65;;;7.75;;
9248;SDS011;4660;41.768;26.198;2022-08-21T08:41:13;10.27;;;7.88;;
9248;SDS011;4660;41.768;26.198;2022-08-21T08:43:43;8.27;;;7.57;;
9248;SDS011;4660;41.768;26.198;2022-08-21T08:46:16;9.13;;;8.18;;
9248;SDS011;4660;41.768;26.198;2022-08-21T08:49:06;8.18;;;7.18;;
9248;SDS011;4660;41.768;26.198;2022-08-21T08:51:46;7.75;;;6.70;;
9248;SDS011;4660;41.768;26.198;2022-08-21T08:54:19;7.05;;;6.55;;
9248;SDS011;4660;41.768;26.198;2022-08-21T08:56:50;8.02;;;7.22;;
9248;SDS011;4660;41.768;26.198;2022-08-21T08:59:25;9.63;;;7.90;;
9248;SDS011;4660;41.768;26.198;2022-08-21T09:01:57;7.88;;;7.18;;
9248;SDS011;4660;41.768;26.198;2022-08-21T09:04:23;8.40;;;7.60;;
9248;SDS011;4660;41.768;26.198;2022-08-21T09:17:48;9.02;;;5.60;;
9248;SDS011;4660;41.768;26.198;2022-08-21T09:23:34;6.50;;;5.90;;
9248;SDS011;4660;41.768;26.198;2022-08-21T09:26:19;9.35;;;6.93;;
9248;SDS011;4660;41.768;26.198;2022-08-21T09:28:52;9.52;;;6.65;;
9248;SDS011;4660;41.768;26.198;2022-08-21T09:34:02;10.05;;;5.90;;
9248;SDS011;4660;41.768;26.198;2022-08-21T09:36:36;8.45;;;5.07;;
9248;SDS011;4660;41.768;26.198;2022-08-21T09:39:05;8.05;;;5.30;;
9248;SDS011;4660;41.768;26.198;2022-08-21T09:41:33;9.32;;;5.35;;
9248;SDS011;4660;41.768;26.198;2022-08-21T09:44:00;9.65;;;5.45;;
9248;SDS011;4660;41.768;26.198;2022-08-21T09:46:27;11.57;;;5.43;;
9248;SDS011;4660;41.768;26.198;2022-08-21T09:48:54;7.07;;;5.15;;
9248;SDS011;4660;41.768;26.198;2022-08-21T09:56:40;8.68;;;5.10;;
9248;SDS011;4660;41.768;26.198;2022-08-21T09:59:37;6.85;;;5.22;;
9248;SDS011;4660;41.768;26.198;2022-08-21T10:02:19;12.10;;;5.88;;
9248;SDS011;4660;41.768;26.198;2022-08-21T10:04:49;7.72;;;4.97;;
9248;SDS011;4660;41.768;26.198;2022-08-21T10:07:19;7.63;;;5.43;;
9248;SDS011;4660;41.768;26.198;2022-08-21T10:09:57;9.82;;;5.38;;
9248;SDS011;4660;41.768;26.198;2022-08-21T10:23:18;8.15;;;5.25;;
9248;SDS011;4660;41.768;26.198;2022-08-21T10:35:12;10.80;;;6.10;;
9248;SDS011;4660;41.768;26.198;2022-08-21T10:46:03;9.40;;;5.93;;
9248;SDS011;4660;41.768;26.198;2022-08-21T10:56:38;9.13;;;6.28;;
9248;SDS011;4660;41.768;26.198;2022-08-21T11:02:18;7.88;;;6.68;;
9248;SDS011;4660;41.768;26.198;2022-08-21T11:04:55;6.65;;;5.95;;
9248;SDS011;4660;41.768;26.198;2022-08-21T11:07:31;8.35;;;6.30;;
9248;SDS011;4660;41.768;26.198;2022-08-21T11:09:58;7.80;;;7.00;;
9248;SDS011;4660;41.768;26.198;2022-08-21T11:12:43;7.93;;;6.50;;
9248;SDS011;4660;41.768;26.198;2022-08-21T11:18:14;8.60;;;6.28;;
9248;SDS011;4660;41.768;26.198;2022-08-21T11:23:26;10.80;;;6.88;;
9248;SDS011;4660;41.768;26.198;2022-08-21T11:26:05;10.00;;;6.85;;
9248;SDS011;4660;41.768;26.198;2022-08-21T11:28:40;6.75;;;6.10;;
9248;SDS011;4660;41.768;26.198;2022-08-21T11:41:31;14.02;;;9.02;;
9248;SDS011;4660;41.768;26.198;2022-08-21T11:47:05;11.43;;;8.32;;
9248;SDS011;4660;41.768;26.198;2022-08-21T11:52:20;12.32;;;8.23;;
9248;SDS011;4660;41.768;26.198;2022-08-21T11:54:58;10.90;;;8.98;;
9248;SDS011;4660;41.768;26.198;2022-08-21T11:57:39;11.18;;;8.90;;
9248;SDS011;4660;41.768;26.198;2022-08-21T12:00:13;9.35;;;8.45;;
9248;SDS011;4660;41.768;26.198;2022-08-21T12:05:27;10.68;;;8.38;;
9248;SDS011;4660;41.768;26.198;2022-08-21T12:08:02;9.48;;;8.50;;
9248;SDS011;4660;41.768;26.198;2022-08-21T12:10:33;7.97;;;7.25;;
9248;SDS011;4660;41.768;26.198;2022-08-21T12:13:09;11.45;;;7.93;;
9248;SDS011;4660;41.768;26.198;2022-08-21T12:15:46;8.65;;;7.80;;
9248;SDS011;4660;41.768;26.198;2022-08-21T12:18:20;7.90;;;7.10;;
9248;SDS011;4660;41.768;26.198;2022-08-21T12:24:05;7.30;;;6.47;;
9248;SDS011;4660;41.768;26.198;2022-08-21T12:29:55;7.78;;;6.20;;
9248;SDS011;4660;41.768;26.198;2022-08-21T12:32:03;12.48;;;7.55;;
9248;SDS011;4660;41.768;26.198;2022-08-21T12:34:52;8.88;;;6.93;;
9248;SDS011;4660;41.768;26.198;2022-08-21T12:37:44;9.38;;;6.95;;
9248;SDS011;4660;41.768;26.198;2022-08-21T12:43:41;9.90;;;7.45;;
9248;SDS011;4660;41.768;26.198;2022-08-21T12:46:13;9.55;;;7.13;;
9248;SDS011;4660;41.768;26.198;2022-08-21T12:48:52;10.30;;;7.45;;
9248;SDS011;4660;41.768;26.198;2022-08-21T12:53:57;8.32;;;7.28;;
9248;SDS011;4660;41.768;26.198;2022-08-21T12:56:26;9.25;;;7.47;;
9248;SDS011;4660;41.768;26.198;2022-08-21T13:01:30;9.73;;;7.22;;
9248;SDS011;4660;41.768;26.198;2022-08-21T13:03:58;8.50;;;7.07;;
9248;SDS011;4660;41.768;26.198;2022-08-21T13:06:29;12.77;;;7.50;;
9248;SDS011;4660;41.768;26.198;2022-08-21T13:08:59;9.50;;;6.60;;
9248;SDS011;4660;41.768;26.198;2022-08-21T13:11:31;8.32;;;7.50;;
9248;SDS011;4660;41.768;26.198;2022-08-21T13:13:57;7.50;;;6.78;;
9248;SDS011;4660;41.768;26.198;2022-08-21T13:16:28;7.85;;;7.07;;
9248;SDS011;4660;41.768;26.198;2022-08-21T13:19:02;11.57;;;6.97;;
9248;SDS011;4660;41.768;26.198;2022-08-21T13:21:42;7.35;;;6.65;;
9248;SDS011;4660;41.768;26.198;2022-08-21T13:34:35;8.98;;;6.82;;
9248;SDS011;4660;41.768;26.198;2022-08-21T13:37:06;7.95;;;6.68;;
9248;SDS011;4660;41.768;26.198;2022-08-21T13:39:33;7.43;;;6.57;;
9248;SDS011;4660;41.768;26.198;2022-08-21T13:42:00;7.18;;;6.57;;
9248;SDS011;4660;41.768;26.198;2022-08-21T13:47:02;7.22;;;6.53;;
9248;SDS011;4660;41.768;26.198;2022-08-21T13:49:34;7.43;;;5.90;;
9248;SDS011;4660;41.768;26.198;2022-08-21T13:52:18;7.22;;;6.53;;
9248;SDS011;4660;41.768;26.198;2022-08-21T13:55:08;10.07;;;6.70;;
9248;SDS011;4660;41.768;26.198;2022-08-21T14:00:17;7.80;;;6.55;;
9248;SDS011;4660;41.768;26.198;2022-08-21T14:02:48;7.90;;;6.22;;
9248;SDS011;4660;41.768;26.198;2022-08-21T14:05:20;8.35;;;6.07;;
9248;SDS011;4660;41.768;26.198;2022-08-21T14:07:50;7.38;;;6.32;;
9248;SDS011;4660;41.768;26.198;2022-08-21T14:10:22;7.38;;;5.97;;
9248;SDS011;4660;41.768;26.198;2022-08-21T14:15:24;9.68;;;6.80;;
9248;SDS011;4660;41.768;26.198;2022-08-21T14:17:54;9.15;;;6.82;;
9248;SDS011;4660;41.768;26.198;2022-08-21T14:20:35;7.43;;;6.40;;
9248;SDS011;4660;41.768;26.198;2022-08-21T14:23:02;8.13;;;5.90;;
9248;SDS011;4660;41.768;26.198;2022-08-21T14:25:29;7.03;;;6.32;;
9248;SDS011;4660;41.768;26.198;2022-08-21T14:33:32;9.27;;;5.75;;
9248;SDS011;4660;41.768;26.198;2022-08-21T14:35:58;10.30;;;6.32;;
9248;SDS011;4660;41.768;26.198;2022-08-21T14:38:25;9.35;;;6.13;;
9248;SDS011;4660;41.768;26.198;2022-08-21T14:40:55;7.43;;;6.40;;
9248;SDS011;4660;41.768;26.198;2022-08-21T14:43:23;12.00;;;6.47;;
9248;SDS011;4660;41.768;26.198;2022-08-21T14:45:52;6.72;;;6.00;;
9248;SDS011;4660;41.768;26.198;2022-08-21T14:48:17;7.47;;;6.78;;
9248;SDS011;4660;41.768;26.198;2022-08-21T14:50:42;8.32;;;6.25;;
9248;SDS011;4660;41.768;26.198;2022-08-21T14:53:08;8.18;;;6.47;;
9248;SDS011;4660;41.768;26.198;2022-08-21T14:55:34;9.55;;;6.78;;
9248;SDS011;4660;41.768;26.198;2022-08-21T14:58:20;8.48;;;6.90;;
9248;SDS011;4660;41.768;26.198;2022-08-21T15:00:57;7.90;;;6.97;;
9248;SDS011;4660;41.768;26.198;2022-08-21T15:03:24;11.48;;;7.70;;
9248;SDS011;4660;41.768;26.198;2022-08-21T15:05:50;14.00;;;7.68;;
9248;SDS011;4660;41.768;26.198;2022-08-21T15:08:17;10.02;;;7.22;;
9248;SDS011;4660;41.768;26.198;2022-08-21T15:15:53;7.97;;;6.80;;
9248;SDS011;4660;41.768;26.198;2022-08-21T15:21:15;7.85;;;7.00;;
9248;SDS011;4660;41.768;26.198;2022-08-21T15:23:40;11.45;;;7.25;;
9248;SDS011;4660;41.768;26.198;2022-08-21T15:26:06;8.50;;;7.25;;
9248;SDS011;4660;41.768;26.198;2022-08-21T15:28:33;10.98;;;7.78;;
9248;SDS011;4660;41.768;26.198;2022-08-21T15:30:59;8.48;;;7.28;;
9248;SDS011;4660;41.768;26.198;2022-08-21T15:33:26;9.52;;;7.88;;
9248;SDS011;4660;41.768;26.198;2022-08-21T15:38:27;8.70;;;7.85;;
9248;SDS011;4660;41.768;26.198;2022-08-21T15:40:53;9.32;;;7.43;;
9248;SDS011;4660;41.768;26.198;2022-08-21T15:43:27;9.52;;;8.00;;
9248;SDS011;4660;41.768;26.198;2022-08-21T15:45:55;8.98;;;8.13;;
9248;SDS011;4660;41.768;26.198;2022-08-21T15:48:21;12.95;;;9.55;;
9248;SDS011;4660;41.768;26.198;2022-08-21T15:50:46;14.07;;;9.35;;
9248;SDS011;4660;41.768;26.198;2022-08-21T15:53:12;10.52;;;9.40;;
9248;SDS011;4660;41.768;26.198;2022-08-21T15:55:38;16.10;;;9.45;;
9248;SDS011;4660;41.768;26.198;2022-08-21T15:58:04;13.43;;;10.27;;
9248;SDS011;4660;41.768;26.198;2022-08-21T16:00:31;14.15;;;10.18;;
9248;SDS011;4660;41.768;26.198;2022-08-21T16:03:00;11.45;;;10.25;;
9248;SDS011;4660;41.768;26.198;2022-08-21T16:05:29;16.85;;;10.73;;
9248;SDS011;4660;41.768;26.198;2022-08-21T16:10:31;12.68;;;10.93;;
9248;SDS011;4660;41.768;26.198;2022-08-21T16:13:04;10.38;;;9.27;;
9248;SDS011;4660;41.768;26.198;2022-08-21T16:15:32;10.98;;;9.77;;
9248;SDS011;4660;41.768;26.198;2022-08-21T16:17:58;11.73;;;10.02;;
9248;SDS011;4660;41.768;26.198;2022-08-21T16:20:26;11.15;;;9.95;;
9248;SDS011;4660;41.768;26.198;2022-08-21T16:25:27;15.57;;;10.82;;
9248;SDS011;4660;41.768;26.198;2022-08-21T16:27:54;11.00;;;9.43;;
9248;SDS011;4660;41.768;26.198;2022-08-21T16:30:23;10.90;;;9.80;;
9248;SDS011;4660;41.768;26.198;2022-08-21T16:32:50;10.98;;;9.88;;
9248;SDS011;4660;41.768;26.198;2022-08-21T16:35:17;12.80;;;9.77;;
9248;SDS011;4660;41.768;26.198;2022-08-21T16:37:45;12.63;;;10.85;;
9248;SDS011;4660;41.768;26.198;2022-08-21T16:40:11;14.38;;;10.27;;
9248;SDS011;4660;41.768;26.198;2022-08-21T16:52:58;13.55;;;10.20;;
9248;SDS011;4660;41.768;26.198;2022-08-21T16:57:59;11.52;;;9.27;;
9248;SDS011;4660;41.768;26.198;2022-08-21T17:00:27;13.57;;;9.95;;
9248;SDS011;4660;41.768;26.198;2022-08-21T17:05:29;9.02;;;8.23;;
9248;SDS011;4660;41.768;26.198;2022-08-21T17:07:56;9.23;;;8.23;;
9248;SDS011;4660;41.768;26.198;2022-08-21T17:10:22;12.48;;;8.57;;
9248;SDS011;4660;41.768;26.198;2022-08-21T17:12:50;10.70;;;8.43;;
9248;SDS011;4660;41.768;26.198;2022-08-21T17:15:25;13.70;;;8.38;;
9248;SDS011;4660;41.768;26.198;2022-08-21T17:17:54;17.20;;;8.60;;
9248;SDS011;4660;41.768;26.198;2022-08-21T17:20:20;10.10;;;7.40;;
9248;SDS011;4660;41.768;26.198;2022-08-21T17:22:46;10.13;;;8.70;;
9248;SDS011;4660;41.768;26.198;2022-08-21T17:25:12;11.18;;;7.70;;
9248;SDS011;4660;41.768;26.198;2022-08-21T17:27:38;11.48;;;7.60;;
9248;SDS011;4660;41.768;26.198;2022-08-21T17:30:05;9.00;;;7.47;;
9248;SDS011;4660;41.768;26.198;2022-08-21T17:32:32;8.05;;;7.25;;
9248;SDS011;4660;41.768;26.198;2022-08-21T17:34:57;8.57;;;7.72;;
9248;SDS011;4660;41.768;26.198;2022-08-21T17:37:23;11.10;;;7.72;;
9248;SDS011;4660;41.768;26.198;2022-08-21T17:42:24;10.13;;;8.57;;
9248;SDS011;4660;41.768;26.198;2022-08-21T17:44:50;12.30;;;7.65;;
9248;SDS011;4660;41.768;26.198;2022-08-21T17:47:15;10.25;;;7.40;;